Time;durP1;ratioP1;P1;durP2;ratioP2;P2;SDS_P1;SDS_P2;PMS_P1;PMS_P2;Temp;Humidity;BMP_temperature;BMP_pressure;BME280_temperature;BME280_humidity;BME280_pressure;Samples;Min_cycle;Max_cycle;Signal;HPM_P1;HPM_P2
2021/10/28 00:13:08;;;;;;;15.73;9.73;;;;;;;7.68;100.00;100564.38;4984706;28;20042;-78
2021/10/28 00:16:33;;;;;;;15.60;9.47;;;;;;;7.70;100.00;100566.88;4985541;28;20046;-78
2021/10/28 00:19:53;;;;;;;19.45;9.65;;;;;;;7.68;100.00;100569.91;4971182;28;20042;-79
2021/10/28 00:23:01;;;;;;;15.55;9.73;;;;;;;7.66;100.00;100560.22;5002041;28;20041;-78
2021/10/28 00:26:24;;;;;;;13.10;8.98;;;;;;;7.64;100.00;100554.97;4985765;28;20053;-79
2021/10/28 00:30:33;;;;;;;;;;;;;;;;;;;;;
2021/10/28 00:34:30;;;;;;;;;;;;;;;;;;;;;
2021/10/28 00:52:17;;;;;;;13.02;8.50;;;;;;;7.54;100.00;100541.13;4893588;29;20056;-78
2021/10/28 01:03:43;;;;;;;11.90;7.93;;;;;;;7.51;100.00;100538.91;4772403;29;20046;-79
2021/10/28 01:06:39;;;;;;;12.75;7.97;;;;;;;7.48;100.00;100536.69;4815314;29;20041;-78
2021/10/28 01:09:37;;;;;;;11.82;7.97;;;;;;;7.47;100.00;100540.59;4864197;29;20041;-77
2021/10/28 01:12:05;;;;;;;10.05;7.03;;;;;;;7.47;100.00;100537.81;4837130;29;20582;-78
2021/10/28 01:15:17;;;;;;;12.68;7.20;;;;;;;7.46;100.00;100536.13;4859600;29;20052;-78
2021/10/28 01:18:19;;;;;;;11.07;7.45;;;;;;;7.43;100.00;100536.69;4796539;29;20042;-78
2021/10/28 01:20:57;;;;;;;9.38;6.75;;;;;;;7.41;100.00;100533.34;4843057;29;20048;-78
2021/10/28 01:23:26;;;;;;;11.73;7.43;;;;;;;7.41;100.00;100533.34;4904301;29;20047;-77
2021/10/28 01:26:07;;;;;;;11.32;6.95;;;;;;;7.37;100.00;100528.38;4922507;29;20036;-78
2021/10/28 01:32:24;;;;;;;10.23;6.65;;;;;;;7.31;100.00;100526.72;4947687;28;20046;-78
2021/10/28 01:34:54;;;;;;;12.55;6.70;;;;;;;7.31;100.00;100521.19;5013274;28;20045;-77
2021/10/28 01:37:25;;;;;;;14.45;6.60;;;;;;;7.29;100.00;100514.25;5009856;28;20119;-77
2021/10/28 01:39:51;;;;;;;9.88;6.38;;;;;;;7.27;100.00;100517.31;5024314;28;20049;-78
2021/10/28 01:42:24;;;;;;;9.90;6.53;;;;;;;7.24;100.00;100503.19;4997815;28;20041;-77
2021/10/28 01:44:55;;;;;;;9.95;6.13;;;;;;;7.22;100.00;100500.72;4998851;28;20130;-78
2021/10/28 01:47:50;;;;;;;10.15;6.10;;;;;;;7.20;100.00;100500.16;4987968;28;20022;-77
2021/10/28 01:50:16;;;;;;;9.00;6.35;;;;;;;7.18;100.00;100491.31;5065864;28;20049;-77
2021/10/28 01:52:44;;;;;;;9.27;6.07;;;;;;;7.14;100.00;100491.03;4981071;28;20049;-77
2021/10/28 01:55:12;;;;;;;10.35;6.80;;;;;;;7.13;100.00;100494.06;5023246;28;20072;-78
2021/10/28 01:57:45;;;;;;;11.73;6.60;;;;;;;7.11;100.00;100496.28;5034289;28;20082;-78
2021/10/28 02:00:22;;;;;;;10.35;7.13;;;;;;;7.08;100.00;100488.53;5016174;28;20029;-78
2021/10/28 02:02:51;;;;;;;10.55;7.30;;;;;;;7.06;100.00;100490.72;5021778;28;20084;-78
2021/10/28 02:05:24;;;;;;;8.77;6.95;;;;;;;7.03;100.00;100489.34;5005467;28;20064;-78
2021/10/28 02:07:50;;;;;;;12.57;7.10;;;;;;;7.03;100.00;100485.75;5018470;28;20432;-77
2021/10/28 02:10:38;;;;;;;11.90;6.60;;;;;;;7.01;100.00;100479.66;5004795;28;20036;-77
2021/10/28 02:13:09;;;;;;;9.82;6.72;;;;;;;7.01;100.00;100483.25;5007932;28;20095;-78
2021/10/28 02:15:52;;;;;;;12.18;6.90;;;;;;;6.98;100.00;100488.50;5028213;28;20109;-78
2021/10/28 02:26:50;;;;;;;9.88;5.97;;;;;;;6.92;100.00;100473.84;4949328;28;20568;-78
2021/10/28 02:30:00;;;;;;;;;;;;;;;;;;;;;
2021/10/28 02:36:35;;;;;;;9.40;6.32;;;;;;;6.84;100.00;100455.84;4899326;29;20053;-78
2021/10/28 02:40:03;;;;;;;;;;;;;;;;;;;;;
2021/10/28 02:43:24;;;;;;;9.63;6.60;;;;;;;6.78;100.00;100454.19;4823967;29;20098;-78
2021/10/28 02:47:21;;;;;;;;;;;;;;;;;;;;;
2021/10/28 02:50:30;;;;;;;9.55;6.68;;;;;;;6.74;100.00;100453.03;4859074;29;20053;-78
2021/10/28 02:53:55;;;;;;;9.18;6.40;;;;;;;6.72;100.00;100447.00;4820100;29;20065;-78
2021/10/28 02:56:38;;;;;;;13.75;6.88;;;;;;;6.72;100.00;100436.78;4880383;29;20116;-78
2021/10/28 02:59:45;;;;;;;10.52;6.40;;;;;;;6.73;100.00;100434.84;4912448;28;20048;-78
2021/10/28 03:02:19;;;;;;;12.07;7.57;;;;;;;6.71;100.00;100434.28;4931828;28;20042;-78
2021/10/28 03:05:33;;;;;;;11.27;7.15;;;;;;;6.69;100.00;100433.75;4947421;28;20042;-78
2021/10/28 03:08:29;;;;;;;10.48;6.97;;;;;;;6.67;100.00;100425.72;4990462;28;20038;-78
2021/10/28 03:11:23;;;;;;;11.95;7.65;;;;;;;6.68;100.00;100430.13;4979389;28;20046;-78
2021/10/28 03:26:58;;;;;;;12.27;7.50;;;;;;;6.61;100.00;100439.78;4998153;28;20092;-78
2021/10/28 03:34:30;;;;;;;15.18;8.07;;;;;;;6.60;100.00;100416.00;5001218;28;20042;-78
2021/10/28 03:38:38;;;;;;;13.23;7.63;;;;;;;6.61;100.00;100425.97;4938633;28;20031;-78
2021/10/28 03:45:32;;;;;;;14.68;8.32;;;;;;;6.57;100.00;100420.16;4926598;29;20039;-78
2021/10/28 04:31:33;;;;;;;14.68;9.57;;;;;;;6.55;100.00;100385.66;4929957;29;20047;-78
2021/10/28 04:34:00;;;;;;;16.08;10.20;;;;;;;6.53;100.00;100385.94;4942815;28;20027;-77
2021/10/28 04:36:30;;;;;;;15.75;9.68;;;;;;;6.53;100.00;100380.41;4931584;28;20043;-78
2021/10/28 04:39:12;;;;;;;17.35;11.10;;;;;;;6.52;100.00;100381.53;4941399;29;20042;-77
2021/10/28 04:41:43;;;;;;;15.30;9.70;;;;;;;6.53;100.00;100382.34;4944939;28;20034;-78
2021/10/28 04:44:37;;;;;;;16.55;10.65;;;;;;;6.51;100.00;100379.00;4948468;28;20292;-78
2021/10/28 04:47:06;;;;;;;19.73;10.02;;;;;;;6.48;100.00;100378.44;4978208;28;20081;-77
2021/10/28 04:49:34;;;;;;;13.57;10.10;;;;;;;6.47;100.00;100371.28;4993099;28;20368;-78
2021/10/28 04:52:18;;;;;;;18.55;10.73;;;;;;;6.49;100.00;100373.75;4989483;28;20038;-77
2021/10/28 04:54:54;;;;;;;18.40;11.43;;;;;;;6.47;100.00;100379.56;4947255;28;20041;-78
2021/10/28 04:57:19;;;;;;;18.20;11.15;;;;;;;6.46;100.00;100369.63;4988801;28;20457;-76
2021/10/28 04:59:48;;;;;;;19.08;10.90;;;;;;;6.48;100.00;100367.41;5027246;28;20041;-77
2021/10/28 05:02:25;;;;;;;19.33;10.13;;;;;;;6.51;100.00;100360.53;4986299;28;20389;-77
2021/10/28 05:04:58;;;;;;;16.88;11.02;;;;;;;6.47;100.00;100354.72;5030614;28;20034;-77
2021/10/28 05:07:46;;;;;;;;;;;;;;;;;;;;;
2021/10/28 05:10:14;;;;;;;14.80;9.98;;;;;;;6.51;100.00;100348.66;5020317;28;20030;-77
2021/10/28 05:12:46;;;;;;;15.57;10.13;;;;;;;6.51;100.00;100349.50;5000787;28;20120;-82
2021/10/28 05:15:12;;;;;;;18.02;10.60;;;;;;;6.50;100.00;100331.28;5026663;28;20064;-79
2021/10/28 05:17:38;;;;;;;18.85;11.30;;;;;;;6.48;100.00;100344.53;5014897;28;20056;-79
2021/10/28 05:20:04;;;;;;;14.82;10.38;;;;;;;6.47;100.00;100338.19;5034388;28;20041;-79
2021/10/28 05:22:30;;;;;;;20.35;11.13;;;;;;;6.49;100.00;100347.03;5044143;28;20030;-79
2021/10/28 05:24:55;;;;;;;17.52;10.93;;;;;;;6.49;100.00;100338.75;5019856;28;20478;-79
2021/10/28 05:27:29;;;;;;;17.67;11.30;;;;;;;6.51;100.00;100340.38;5017903;28;20045;-84
2021/10/28 05:29:55;;;;;;;15.52;10.23;;;;;;;6.52;100.00;100339.28;4998944;28;20037;-77
2021/10/28 05:32:20;;;;;;;19.33;10.45;;;;;;;6.53;100.00;100340.97;5006286;28;20566;-78
2021/10/28 05:34:48;;;;;;;17.98;11.02;;;;;;;6.56;100.00;100329.38;5021863;28;20037;-79
2021/10/28 05:37:14;;;;;;;13.05;9.38;;;;;;;6.57;100.00;100325.50;5020486;28;20498;-74
2021/10/28 05:39:39;;;;;;;15.63;9.82;;;;;;;6.59;100.00;100329.66;5048194;28;20051;-75
2021/10/28 05:42:05;;;;;;;16.65;9.95;;;;;;;6.59;100.00;100328.81;5038162;28;20041;-75
2021/10/28 05:44:31;;;;;;;15.52;10.45;;;;;;;6.57;100.00;100326.31;5039631;28;20037;-76
2021/10/28 05:46:56;;;;;;;16.38;9.95;;;;;;;6.57;100.00;100320.81;5038727;28;20095;-75
2021/10/28 05:49:22;;;;;;;17.33;11.07;;;;;;;6.60;100.00;100322.19;5044725;28;20454;-75
2021/10/28 05:51:48;;;;;;;17.20;10.32;;;;;;;6.57;100.00;100320.81;5007700;28;20025;-75
2021/10/28 05:54:14;;;;;;;18.08;10.20;;;;;;;6.58;100.00;100321.66;5019487;28;20108;-75
2021/10/28 05:56:40;;;;;;;16.67;10.38;;;;;;;6.57;100.00;100309.78;5015391;28;20033;-75
2021/10/28 05:59:05;;;;;;;15.50;10.10;;;;;;;6.57;100.00;100309.78;5035355;28;20033;-75
2021/10/28 06:01:30;;;;;;;14.25;9.73;;;;;;;6.56;100.00;100308.13;5040846;28;20025;-75
2021/10/28 06:03:56;;;;;;;18.40;9.80;;;;;;;6.56;100.00;100312.81;5038476;28;20048;-76
2021/10/28 06:06:22;;;;;;;14.35;9.65;;;;;;;6.57;100.00;100297.91;5023051;28;20041;-76
2021/10/28 06:08:47;;;;;;;16.38;9.90;;;;;;;6.54;100.00;100298.47;5034194;28;20390;-76
2021/10/28 06:11:15;;;;;;;14.80;9.43;;;;;;;6.55;100.00;100297.38;5010849;28;20693;-75
2021/10/28 06:13:46;;;;;;;14.82;9.63;;;;;;;6.55;100.00;100297.38;5038046;28;20037;-75
2021/10/28 06:16:12;;;;;;;13.02;9.68;;;;;;;6.52;100.00;100296.00;5046133;28;20061;-75
2021/10/28 06:18:39;;;;;;;16.55;10.40;;;;;;;6.54;100.00;100298.47;5033891;28;20026;-76
2021/10/28 06:21:05;;;;;;;16.13;9.20;;;;;;;6.49;100.00;100289.09;5042706;28;20514;-76
2021/10/28 06:23:31;;;;;;;12.60;8.93;;;;;;;6.52;100.00;100279.44;5006344;28;20116;-76
2021/10/28 06:25:56;;;;;;;13.02;9.07;;;;;;;6.52;100.00;100281.34;5050688;28;20120;-76
2021/10/28 06:28:22;;;;;;;15.98;10.13;;;;;;;6.50;100.00;100281.63;5024010;28;20028;-73
2021/10/28 06:30:48;;;;;;;16.33;9.27;;;;;;;6.47;100.00;100288.50;5011577;28;20494;-76
2021/10/28 06:33:35;;;;;;;17.05;9.52;;;;;;;6.51;100.00;100283.28;4991275;28;20033;-77
2021/10/28 06:36:03;;;;;;;20.77;10.90;;;;;;;6.48;100.00;100284.66;5022224;28;20119;-77
2021/10/28 06:38:35;;;;;;;13.15;8.93;;;;;;;6.49;100.00;100286.31;5041860;28;20052;-77
2021/10/28 06:41:03;;;;;;;13.40;9.65;;;;;;;6.47;100.00;100285.75;5003396;28;20056;-77
2021/10/28 06:43:34;;;;;;;13.90;8.57;;;;;;;6.51;100.00;100288.78;5018921;28;20061;-77
2021/10/28 06:46:00;;;;;;;14.30;9.55;;;;;;;6.54;100.00;100287.41;5003516;28;20029;-77
2021/10/28 06:48:31;;;;;;;12.60;8.55;;;;;;;6.53;100.00;100283.84;5019901;28;20037;-77
2021/10/28 06:51:04;;;;;;;13.18;8.48;;;;;;;6.51;100.00;100271.41;4989518;28;20371;-77
2021/10/28 06:53:45;;;;;;;11.18;7.97;;;;;;;6.53;100.00;100280.25;4984845;28;20042;-77
2021/10/28 07:04:47;;;;;;;12.20;8.20;;;;;;;6.56;100.00;100294.31;5021733;28;20119;-77
2021/10/28 07:07:17;;;;;;;13.30;8.23;;;;;;;6.56;100.00;100294.31;5031250;28;20108;-77
2021/10/28 07:09:58;;;;;;;12.98;8.45;;;;;;;6.56;100.00;100294.31;5019731;28;20021;-77
2021/10/28 07:15:06;;;;;;;14.55;8.63;;;;;;;6.61;100.00;100288.81;5031343;28;20033;-76
2021/10/28 07:18:00;;;;;;;15.90;9.23;;;;;;;6.64;100.00;100287.44;5028035;28;20567;-77
2021/10/28 07:34:22;;;;;;;18.02;11.32;;;;;;;7.11;100.00;100291.91;5018456;28;20061;-77
2021/10/28 07:54:56;;;;;;;20.83;12.50;;;;;;;7.34;100.00;100276.69;5040634;28;20454;-77
2021/10/28 07:59:30;;;;;;;18.27;10.43;;;;;;;8.10;100.00;100269.28;5019043;28;20029;-76
2021/10/28 08:13:32;;;;;;;15.50;9.68;;;;;;;8.59;100.00;100261.03;5039198;28;20084;-77
2021/10/28 08:18:46;;;;;;;17.80;10.18;;;;;;;8.81;100.00;100259.78;5040776;28;20034;-77
2021/10/28 08:21:39;;;;;;;11.37;7.37;;;;;;;8.94;100.00;100256.31;5014585;28;20032;-76
2021/10/28 08:24:14;;;;;;;12.43;9.02;;;;;;;9.06;100.00;100254.03;4992244;28;20044;-77
2021/10/28 08:29:34;;;;;;;14.50;9.20;;;;;;;9.33;100.00;100245.19;5039310;28;20077;-77
2021/10/28 08:32:00;;;;;;;14.40;9.30;;;;;;;9.45;100.00;100249.50;5002330;28;20474;-77
2021/10/28 08:34:32;;;;;;;11.32;8.13;;;;;;;9.56;100.00;100251.88;5050407;28;20048;-77
2021/10/28 08:37:08;;;;;;;11.30;8.45;;;;;;;9.68;100.00;100243.16;5001030;28;20031;-76
2021/10/28 08:39:34;;;;;;;11.43;7.70;;;;;;;9.80;100.00;100226.09;5022748;28;20113;-76
2021/10/28 08:42:02;;;;;;;12.40;7.88;;;;;;;9.93;100.00;100238.44;5035162;28;20045;-76
2021/10/28 08:44:30;;;;;;;13.95;8.65;;;;;;;10.03;100.00;100236.34;5020820;28;20049;-76
2021/10/28 08:46:55;;;;;;;12.05;8.13;;;;;;;10.16;100.00;100232.00;5031867;28;20155;-77
2021/10/28 08:49:28;;;;;;;10.35;7.55;;;;;;;10.29;100.00;100222.16;5028928;28;20068;-77
2021/10/28 09:26:28;;;;;;;10.55;7.15;;;;;;;12.28;100.00;100189.91;4992210;28;20041;-76
2021/10/28 09:31:57;;;;;;;10.40;7.10;;;;;;;12.46;100.00;100199.25;5034351;28;20026;-77
2021/10/28 09:51:21;;;;;;;12.55;7.60;;;;;;;13.00;96.08;100182.59;4996807;28;20049;-77
2021/10/28 09:59:33;;;;;;;11.35;7.50;;;;;;;13.12;98.19;100169.72;5031195;28;20159;-76
2021/10/28 10:04:31;;;;;;;11.65;6.47;;;;;;;13.26;97.75;100158.53;5024623;28;20493;-75
2021/10/28 10:06:57;;;;;;;13.07;6.80;;;;;;;13.40;95.39;100164.00;5028785;28;20080;-75
2021/10/28 10:09:23;;;;;;;11.02;6.82;;;;;;;13.48;94.58;100157.59;5046635;28;20030;-75
2021/10/28 10:11:49;;;;;;;11.15;7.30;;;;;;;13.54;93.39;100142.38;5012489;28;20045;-76
2021/10/28 10:14:14;;;;;;;9.45;7.53;;;;;;;13.64;92.89;100130.09;5032971;28;20045;-76
2021/10/28 10:16:41;;;;;;;9.30;7.00;;;;;;;13.71;93.02;100129.63;4994886;28;20036;-76
2021/10/28 10:19:06;;;;;;;12.40;8.63;;;;;;;13.79;91.99;100126.88;5017989;28;20088;-76
2021/10/28 10:24:11;;;;;;;12.60;7.65;;;;;;;13.93;92.20;100125.88;5019994;28;20040;-79
2021/10/28 10:29:58;;;;;;;11.30;7.70;;;;;;;14.00;94.44;100126.25;5034730;28;20048;-76
2021/10/28 11:58:57;;;;;;;8.75;5.20;;;;;;;15.75;92.19;100033.19;5020835;28;20029;-77
2021/10/28 12:23:48;;;;;;;6.55;3.75;;;;;;;16.86;83.57;99958.78;5045534;28;20033;-79
2021/10/28 13:05:20;;;;;;;5.63;3.72;;;;;;;16.89;80.00;99867.50;5019647;28;20025;-79
2021/10/28 13:37:42;;;;;;;6.72;3.05;;;;;;;16.26;77.29;99829.38;5032243;28;20047;-78
2021/10/28 13:50:50;;;;;;;5.10;2.55;;;;;;;15.81;80.98;99824.66;5019125;28;20029;-78
2021/10/28 13:53:31;;;;;;;4.47;2.70;;;;;;;15.76;79.32;99819.25;5035090;28;20071;-78
2021/10/28 13:56:47;;;;;;;5.60;3.17;;;;;;;15.69;79.65;99813.41;5010812;28;20551;-78
2021/10/28 13:59:24;;;;;;;7.32;3.50;;;;;;;15.63;80.49;99809.19;5022915;28;20034;-77
2021/10/28 14:16:31;;;;;;;6.68;3.10;;;;;;;15.17;80.74;99800.69;5033569;28;20037;-77
2021/10/28 14:18:52;;;;;;;5.40;3.20;;;;;;;15.11;81.83;99788.09;5027527;28;20026;-78
2021/10/28 14:21:27;;;;;;;5.03;3.30;;;;;;;15.08;81.24;99797.16;5015815;28;20165;-75
2021/10/28 15:00:33;;;;;;;8.63;4.38;;;;;;;14.57;84.54;99754.47;5036162;28;20025;-75
2021/10/28 15:30:10;;;;;;;9.05;4.55;;;;;;;14.20;87.95;99728.22;5016849;28;20409;-78
2021/10/28 15:43:41;;;;;;;8.55;4.72;;;;;;;14.02;87.91;99727.50;5036089;28;20465;-77
2021/10/28 15:56:41;;;;;;;7.80;3.78;;;;;;;13.77;88.87;99713.31;5014041;28;20386;-77
2021/10/28 16:23:59;;;;;;;7.30;4.03;;;;;;;13.41;90.00;99691.47;5045004;28;20094;-78
2021/10/28 16:26:31;;;;;;;7.43;4.55;;;;;;;13.37;90.55;99685.75;5038541;28;20444;-78
2021/10/28 16:28:56;;;;;;;7.43;3.95;;;;;;;13.33;90.18;99684.75;5034346;28;20045;-77
2021/10/28 16:31:22;;;;;;;9.18;3.72;;;;;;;13.32;90.49;99690.69;5040702;28;20034;-77
2021/10/28 16:33:49;;;;;;;6.53;3.80;;;;;;;13.28;90.49;99678.53;5033391;28;20017;-77
2021/10/28 16:36:15;;;;;;;7.43;4.22;;;;;;;13.22;90.93;99683.44;5036405;28;20056;-77
2021/10/28 16:38:42;;;;;;;8.20;3.95;;;;;;;13.19;90.87;99682.16;4997974;28;20030;-77
2021/10/28 16:41:07;;;;;;;7.00;4.38;;;;;;;13.15;91.04;99672.81;5024988;28;20033;-78
2021/10/28 16:43:33;;;;;;;8.60;4.32;;;;;;;13.09;91.12;99668.56;5034739;28;20029;-79
2021/10/28 16:45:58;;;;;;;9.25;4.40;;;;;;;13.09;91.38;99673.31;5018634;28;20367;-76
2021/10/28 16:48:24;;;;;;;8.88;4.30;;;;;;;13.06;91.26;99665.59;5018215;28;20037;-76
2021/10/28 16:50:50;;;;;;;8.52;4.20;;;;;;;13.01;91.66;99671.34;5033217;28;20041;-76
2021/10/28 16:53:15;;;;;;;6.57;3.80;;;;;;;12.99;91.80;99668.09;5030946;28;20025;-76
2021/10/28 16:55:41;;;;;;;9.40;4.15;;;;;;;12.93;92.19;99670.25;5023160;28;20036;-77
2021/10/28 16:58:09;;;;;;;5.93;3.72;;;;;;;12.89;91.98;99669.25;5034289;28;20025;-74
2021/10/28 17:00:34;;;;;;;7.35;4.53;;;;;;;12.85;92.38;99662.72;5032487;28;20484;-76
2021/10/28 17:03:00;;;;;;;10.07;4.05;;;;;;;12.81;92.56;99667.28;5035983;28;20029;-71
2021/10/28 17:05:25;;;;;;;7.05;3.88;;;;;;;12.75;92.66;99652.72;5031972;28;20037;-74
2021/10/28 17:07:55;;;;;;;8.70;4.28;;;;;;;12.71;92.65;99658.13;4999963;28;20033;-78
2021/10/28 17:10:23;;;;;;;8.80;4.57;;;;;;;12.66;92.73;99649.94;4979700;28;20401;-78
2021/10/28 17:12:49;;;;;;;9.45;4.38;;;;;;;12.63;92.91;99660.94;5011709;28;20022;-78
2021/10/28 17:15:33;;;;;;;7.75;4.63;;;;;;;12.55;92.81;99657.00;5026096;28;20034;-78
2021/10/28 17:17:58;;;;;;;7.97;4.30;;;;;;;12.51;92.63;99648.47;5003881;28;20042;-78
2021/10/28 17:20:26;;;;;;;8.73;4.80;;;;;;;12.48;93.26;99657.50;5033148;28;20033;-76
2021/10/28 17:26:22;;;;;;;7.15;5.25;;;;;;;12.38;93.09;99651.41;4989296;28;20077;-78
2021/10/28 17:29:01;;;;;;;7.60;4.97;;;;;;;12.36;93.27;99651.75;5015917;28;20060;-78
2021/10/28 17:31:29;;;;;;;7.82;5.60;;;;;;;12.32;93.41;99647.16;5017861;28;20487;-78
2021/10/28 17:34:01;;;;;;;7.15;5.05;;;;;;;12.25;93.35;99654.00;5016198;28;20040;-78
2021/10/28 17:37:01;;;;;;;9.32;5.50;;;;;;;12.23;93.47;99644.34;5015364;28;20030;-78
2021/10/28 17:40:26;;;;;;;9.93;5.28;;;;;;;12.15;93.72;99646.00;4998583;28;20044;-78
2021/10/28 17:43:42;;;;;;;7.53;5.45;;;;;;;12.12;93.93;99645.81;5009510;28;20068;-78
2021/10/28 17:46:12;;;;;;;9.85;5.95;;;;;;;12.06;94.04;99636.81;5004426;28;20506;-79
2021/10/28 17:48:46;;;;;;;9.52;5.80;;;;;;;12.02;94.48;99633.84;5034063;28;20030;-78
2021/10/28 17:52:07;;;;;;;10.48;5.60;;;;;;;11.96;94.35;99628.78;5014903;28;20128;-78
2021/10/28 17:54:45;;;;;;;8.95;4.95;;;;;;;11.89;93.67;99626.47;5025982;28;20051;-78
2021/10/28 17:57:20;;;;;;;8.35;5.07;;;;;;;11.84;93.99;99619.06;4987170;28;20056;-78
2021/10/28 18:00:37;;;;;;;7.88;5.30;;;;;;;11.81;95.08;99628.06;5033003;28;20038;-79
2021/10/28 18:06:08;;;;;;;10.45;5.82;;;;;;;11.70;95.78;99618.41;4964885;28;20054;-78
2021/10/28 18:08:36;;;;;;;12.25;5.78;;;;;;;11.66;95.52;99622.94;4972144;28;20046;-78
2021/10/28 18:15:02;;;;;;;8.82;6.30;;;;;;;11.60;96.47;99618.69;4995229;28;20042;-78
2021/10/28 18:17:31;;;;;;;9.77;6.40;;;;;;;11.56;97.24;99612.09;4982134;28;20064;-73
2021/10/28 18:19:57;;;;;;;10.88;6.68;;;;;;;11.53;97.58;99619.16;4991253;28;20102;-73
2021/10/28 18:22:23;;;;;;;9.48;6.20;;;;;;;11.48;97.09;99619.31;4979087;28;20452;-74
2021/10/28 18:24:48;;;;;;;9.57;6.22;;;;;;;11.48;97.38;99619.31;4984984;28;20104;-74
2021/10/28 18:27:14;;;;;;;10.48;6.38;;;;;;;11.39;96.70;99619.28;5013213;28;20049;-73
2021/10/28 18:29:40;;;;;;;11.60;6.50;;;;;;;11.40;97.44;99615.34;5031247;28;20048;-74
2021/10/28 18:32:09;;;;;;;8.90;5.72;;;;;;;11.38;97.92;99616.81;5061080;28;20037;-74
2021/10/28 18:34:35;;;;;;;12.43;6.88;;;;;;;11.37;99.56;99610.44;5033680;28;20030;-74
2021/10/28 18:37:01;;;;;;;9.63;7.13;;;;;;;11.36;99.60;99611.56;5031046;28;20029;-73
2021/10/28 18:39:26;;;;;;;10.38;6.57;;;;;;;11.34;98.49;99610.25;5032181;28;20088;-73
2021/10/28 18:41:53;;;;;;;12.57;7.35;;;;;;;11.33;99.42;99612.19;5037414;28;20112;-75
2021/10/28 18:44:18;;;;;;;11.93;7.18;;;;;;;11.29;99.17;99602.06;5002377;28;20029;-76
2021/10/28 18:46:45;;;;;;;10.70;6.70;;;;;;;11.25;98.30;99607.41;5030172;28;20034;-76
2021/10/28 18:49:11;;;;;;;12.10;6.63;;;;;;;11.25;98.80;99610.19;5024862;28;20029;-75
2021/10/28 18:51:38;;;;;;;12.68;7.05;;;;;;;11.25;99.19;99607.41;5019724;28;20542;-76
2021/10/28 18:54:04;;;;;;;13.20;7.15;;;;;;;11.25;100.00;99601.84;5036113;28;20177;-75
2021/10/28 18:56:30;;;;;;;11.60;6.78;;;;;;;11.22;99.87;99602.50;5034557;28;20025;-75
2021/10/28 18:58:55;;;;;;;11.40;6.60;;;;;;;11.21;100.00;99600.88;5035093;28;20032;-75
2021/10/28 19:01:21;;;;;;;13.57;7.57;;;;;;;11.20;100.00;99604.81;5035895;28;20541;-75
2021/10/28 19:03:46;;;;;;;10.20;6.75;;;;;;;11.15;99.43;99591.06;5036475;28;20045;-75
2021/10/28 19:06:13;;;;;;;12.65;6.63;;;;;;;11.15;100.00;99596.59;5034747;28;20052;-75
2021/10/28 19:08:39;;;;;;;11.68;7.00;;;;;;;11.17;100.00;99599.88;5023457;28;20157;-75
2021/10/28 19:11:05;;;;;;;12.98;7.00;;;;;;;11.13;100.00;99591.34;5035545;28;20030;-75
2021/10/28 19:13:32;;;;;;;13.73;7.40;;;;;;;11.12;100.00;99583.34;5033259;28;20482;-76
2021/10/28 19:15:58;;;;;;;12.43;7.30;;;;;;;11.08;100.00;99582.34;5019445;28;20077;-75
2021/10/28 19:18:24;;;;;;;12.07;7.13;;;;;;;11.07;100.00;99577.94;5034858;28;20044;-75
2021/10/28 19:20:50;;;;;;;13.98;7.28;;;;;;;11.07;100.00;99577.94;5033966;28;20034;-75
2021/10/28 19:23:15;;;;;;;11.45;7.28;;;;;;;11.04;100.00;99573.84;5026200;28;20104;-76
2021/10/28 19:25:41;;;;;;;12.82;7.50;;;;;;;11.02;99.92;99566.94;5021386;28;20088;-74
2021/10/28 19:28:08;;;;;;;13.20;7.15;;;;;;;11.03;100.00;99574.13;5034770;28;20030;-74
2021/10/28 19:30:42;;;;;;;12.57;7.40;;;;;;;11.02;100.00;99564.19;5036159;28;20509;-75
2021/10/28 19:33:55;;;;;;;16.05;7.22;;;;;;;11.00;100.00;99561.69;5015818;28;20061;-79
2021/10/28 19:36:36;;;;;;;11.23;7.15;;;;;;;10.94;99.96;99561.03;5019333;28;20041;-76
2021/10/28 19:45:04;;;;;;;14.18;8.38;;;;;;;10.93;100.00;99553.84;5025071;28;20059;-79
2021/10/28 19:45:13;;;;;;;15.00;7.93;;;;;;;10.92;100.00;99548.59;5035377;28;20048;-74
2021/10/28 19:47:51;;;;;;;17.33;8.13;;;;;;;10.91;100.00;99546.97;5007624;28;20191;-79
2021/10/28 19:54:16;;;;;;;15.80;9.23;;;;;;;10.90;100.00;99539.78;5035584;28;20566;-78
2021/10/28 19:56:47;;;;;;;15.13;8.93;;;;;;;10.89;100.00;99529.78;5005659;28;20040;-77
2021/10/28 19:59:53;;;;;;;15.38;9.63;;;;;;;10.89;100.00;99543.69;5017346;28;20029;-79
2021/10/28 20:08:17;;;;;;;20.88;11.38;;;;;;;10.83;100.00;99520.78;5017904;28;20032;-78
2021/10/28 20:13:58;;;;;;;21.83;10.73;;;;;;;10.81;100.00;99511.97;5029968;28;20710;-79
2021/10/28 20:20:15;;;;;;;20.00;10.80;;;;;;;10.82;100.00;99521.13;5001691;28;20034;-80
2021/10/28 20:23:14;;;;;;;22.75;11.38;;;;;;;10.82;100.00;99533.03;4990051;28;20041;-80
2021/10/28 20:26:04;;;;;;;17.67;10.23;;;;;;;10.82;100.00;99516.38;5019056;28;20032;-78
2021/10/28 20:28:44;;;;;;;23.23;11.98;;;;;;;10.84;100.00;99514.09;5027781;28;20041;-78
2021/10/28 20:31:13;;;;;;;26.27;13.20;;;;;;;10.86;100.00;99517.34;4988503;28;20038;-79
2021/10/28 20:39:57;;;;;;;24.88;12.25;;;;;;;10.90;100.00;99507.25;5036459;28;20037;-79
2021/10/28 20:43:08;;;;;;;;;;;;;;;;;;;;;
2021/10/28 20:46:36;;;;;;;20.65;11.85;;;;;;;10.92;100.00;99501.38;5024192;28;20025;-78
2021/10/28 20:50:24;;;;;;;19.30;10.70;;;;;;;10.90;100.00;99501.72;5012094;28;20046;-79
2021/10/28 20:53:11;;;;;;;20.83;11.82;;;;;;;10.90;100.00;99493.38;5033005;28;20045;-79
2021/10/28 20:56:25;;;;;;;26.23;11.60;;;;;;;10.90;100.00;99493.38;4985625;28;20041;-78
2021/10/28 20:59:15;;;;;;;21.52;11.43;;;;;;;10.90;100.00;99490.59;4998202;28;20045;-79
2021/10/28 21:03:00;;;;;;;19.60;10.55;;;;;;;10.91;100.00;99486.66;5009257;28;20030;-79
2021/10/28 21:05:50;;;;;;;27.30;12.93;;;;;;;10.92;100.00;99487.47;4999636;28;20099;-79
2021/10/28 21:08:28;;;;;;;19.95;11.10;;;;;;;10.89;100.00;99477.00;5007631;28;24331;-79
2021/10/28 21:10:59;;;;;;;18.33;11.20;;;;;;;10.89;100.00;99477.84;5010797;28;20058;-79
2021/10/28 21:13:31;;;;;;;22.40;11.48;;;;;;;10.89;100.00;99475.06;5034304;28;20106;-78
2021/10/28 21:16:05;;;;;;;18.70;11.18;;;;;;;10.87;100.00;99469.03;4983171;28;20506;-79
2021/10/28 21:18:36;;;;;;;20.05;11.82;;;;;;;10.88;100.00;99470.66;5031529;28;20050;-78
2021/10/28 21:21:02;;;;;;;18.85;11.48;;;;;;;10.88;100.00;99469.81;5003957;28;20480;-78
2021/10/28 21:23:31;;;;;;;20.70;11.40;;;;;;;10.88;100.00;99465.09;4995525;28;20083;-78
2021/10/28 21:26:44;;;;;;;16.70;10.38;;;;;;;10.87;100.00;99462.66;4984955;28;20041;-79
2021/10/28 21:29:27;;;;;;;;;;;;;;;10.88;100.00;99459.53;5025257;28;20061;-78
2021/10/28 21:32:06;;;;;;;24.73;12.05;;;;;;;10.89;100.00;99452.84;5026478;28;20332;-79
2021/10/28 21:35:04;;;;;;;20.38;11.35;;;;;;;10.88;100.00;99459.53;5008796;28;20042;-78
2021/10/28 21:37:38;;;;;;;19.65;12.05;;;;;;;10.88;100.00;99458.72;5041017;28;20060;-79
2021/10/28 21:40:16;;;;;;;22.60;11.77;;;;;;;10.85;100.00;99456.59;5027645;28;20053;-78
2021/10/28 21:43:09;;;;;;;19.63;11.50;;;;;;;10.85;100.00;99453.81;5019097;28;20034;-79
2021/10/28 21:45:53;;;;;;;17.75;11.27;;;;;;;10.84;100.00;99447.44;5003490;28;20177;-78
2021/10/28 21:48:49;;;;;;;21.08;11.23;;;;;;;10.81;100.00;99448.09;5003064;28;20431;-79
2021/10/28 21:51:23;;;;;;;22.05;10.93;;;;;;;10.82;100.00;99437.78;5013796;28;20033;-79
2021/10/28 21:53:54;;;;;;;18.60;10.25;;;;;;;10.81;100.00;99442.53;5031494;28;20129;-79
2021/10/28 21:56:36;;;;;;;22.38;10.55;;;;;;;10.80;100.00;99440.88;5037248;28;20080;-79
2021/10/28 22:02:34;;;;;;;21.02;11.40;;;;;;;10.79;100.00;99442.03;5012371;28;20037;-78
2021/10/28 22:05:17;;;;;;;21.70;11.00;;;;;;;10.78;100.00;99436.78;5019996;28;20478;-78
2021/10/28 22:24:58;;;;;;;22.55;11.85;;;;;;;10.68;100.00;99397.06;5021158;28;20379;-79
2021/10/28 22:27:36;;;;;;;22.33;11.07;;;;;;;10.69;100.00;99407.03;5007454;28;20061;-79
2021/10/28 22:30:22;;;;;;;18.75;10.70;;;;;;;10.67;100.00;99398.22;5023887;28;20060;-78
2021/10/28 22:32:58;;;;;;;17.27;10.23;;;;;;;10.68;100.00;99385.16;5021079;28;20065;-78
2021/10/28 22:46:30;;;;;;;17.40;11.85;;;;;;;10.68;100.00;99354.59;5024590;28;20035;-79